Time;durP1;ratioP1;P1;durP2;ratioP2;P2;SDS_P1;SDS_P2;PMS_P1;PMS_P2;Temp;Humidity;BMP_temperature;BMP_pressure;BME280_temperature;BME280_humidity;BME280_pressure;Samples;Min_cycle;Max_cycle;Signal;HPM_P1;HPM_P2
2021/03/12 00:00:35;;;;;;;14.65;2.58;;;;;;;;;;5001176;28;20050;-74
2021/03/12 00:03:01;;;;;;;20.75;3.08;;;;;;;;;;4985980;28;20041;-72
2021/03/12 00:05:28;;;;;;;16.33;2.63;;;;;;;;;;5008179;28;20080;-74
2021/03/12 00:07:54;;;;;;;23.77;2.75;;;;;;;;;;4990683;28;20053;-72
2021/03/12 00:10:22;;;;;;;21.92;3.30;;;;;;;;;;4997476;28;20051;-73
2021/03/12 00:12:48;;;;;;;16.27;3.17;;;;;;;;;;5001021;28;20716;-73
2021/03/12 00:15:16;;;;;;;34.63;3.83;;;;;;;;;;4993871;28;20054;-75
2021/03/12 00:17:43;;;;;;;13.05;2.47;;;;;;;;;;4997333;28;20049;-73
2021/03/12 00:20:11;;;;;;;18.92;2.70;;;;;;;;;;4999145;28;20498;-74
2021/03/12 00:22:37;;;;;;;17.42;2.83;;;;;;;;;;4988175;28;20042;-74
2021/03/12 00:25:05;;;;;;;17.08;3.67;;;;;;;;;;5000227;28;20045;-74
2021/03/12 00:27:31;;;;;;;30.67;3.13;;;;;;;;;;4987659;28;20042;-74
2021/03/12 00:29:57;;;;;;;18.70;3.33;;;;;;;;;;4978258;28;20484;-73
2021/03/12 00:32:23;;;;;;;20.10;2.35;;;;;;;;;;5002051;28;20397;-74
2021/03/12 00:34:49;;;;;;;22.98;3.13;;;;;;;;;;4990707;28;20046;-74
2021/03/12 00:37:15;;;;;;;19.25;2.80;;;;;;;;;;4979441;28;20050;-76
2021/03/12 00:39:42;;;;;;;18.15;2.70;;;;;;;;;;5002153;28;20386;-75
2021/03/12 00:42:10;;;;;;;20.85;2.92;;;;;;;;;;4982131;28;20497;-74
2021/03/12 00:44:36;;;;;;;21.48;2.33;;;;;;;;;;4987987;28;20057;-75
2021/03/12 00:47:05;;;;;;;22.17;2.90;;;;;;;;;;5006709;28;20038;-75
2021/03/12 00:49:31;;;;;;;19.58;2.75;;;;;;;;;;4993018;28;20058;-75
2021/03/12 00:51:57;;;;;;;16.63;3.03;;;;;;;;;;4999072;28;20045;-75
2021/03/12 00:54:23;;;;;;;21.65;3.85;;;;;;;;;;5006566;28;20046;-75
2021/03/12 00:56:49;;;;;;;17.15;2.97;;;;;;;;;;4983979;28;20099;-74
2021/03/12 00:59:16;;;;;;;18.55;2.67;;;;;;;;;;4976854;28;20061;-75
2021/03/12 01:01:42;;;;;;;20.50;3.70;;;;;;;;;;5010689;28;20465;-75
2021/03/12 01:04:09;;;;;;;17.67;2.45;;;;;;;;;;5001793;28;20188;-75
2021/03/12 01:06:35;;;;;;;17.92;3.95;;;;;;;;;;4991315;28;20045;-74
2021/03/12 01:09:01;;;;;;;22.98;3.25;;;;;;;;;;5011500;28;20092;-74
2021/03/12 01:11:28;;;;;;;14.68;2.97;;;;;;;;;;5009160;28;20042;-75
2021/03/12 01:13:54;;;;;;;20.27;2.63;;;;;;;;;;5008843;28;20053;-75
2021/03/12 01:16:20;;;;;;;21.20;3.30;;;;;;;;;;4991075;28;20542;-75
2021/03/12 01:18:46;;;;;;;21.45;2.83;;;;;;;;;;4993910;28;20046;-75
2021/03/12 01:21:13;;;;;;;18.10;2.60;;;;;;;;;;4999819;28;20050;-75
2021/03/12 01:23:39;;;;;;;16.42;2.70;;;;;;;;;;5005571;28;20080;-75
2021/03/12 01:26:05;;;;;;;17.95;3.28;;;;;;;;;;4994235;28;20423;-75
2021/03/12 01:28:31;;;;;;;19.92;2.78;;;;;;;;;;4995048;28;20392;-75
2021/03/12 01:30:57;;;;;;;13.57;2.50;;;;;;;;;;4977000;28;20037;-74
2021/03/12 01:33:25;;;;;;;16.10;3.10;;;;;;;;;;5006863;28;20088;-75
2021/03/12 01:35:51;;;;;;;18.35;2.58;;;;;;;;;;5009064;28;20119;-75
2021/03/12 01:38:17;;;;;;;16.15;2.63;;;;;;;;;;4999700;28;20046;-75
2021/03/12 01:40:45;;;;;;;17.15;2.90;;;;;;;;;;5010235;28;20487;-75
2021/03/12 01:43:11;;;;;;;19.02;3.30;;;;;;;;;;4990363;28;20066;-75
2021/03/12 01:45:37;;;;;;;12.93;2.53;;;;;;;;;;4989872;28;20089;-74
2021/03/12 01:48:05;;;;;;;16.27;2.75;;;;;;;;;;4988877;28;20108;-75
2021/03/12 01:50:31;;;;;;;15.32;3.30;;;;;;;;;;4988402;28;20038;-75
2021/03/12 01:52:58;;;;;;;18.42;4.43;;;;;;;;;;4989268;28;20052;-75
2021/03/12 01:55:31;;;;;;;22.98;3.67;;;;;;;;;;4989171;28;20207;-74
2021/03/12 01:57:58;;;;;;;13.57;2.45;;;;;;;;;;4987803;28;20445;-75
2021/03/12 02:00:25;;;;;;;13.65;2.63;;;;;;;;;;4987389;28;20410;-75
2021/03/12 02:02:51;;;;;;;16.17;2.60;;;;;;;;;;4996792;28;20497;-75
2021/03/12 02:05:17;;;;;;;18.60;2.58;;;;;;;;;;4992706;28;20053;-75
2021/03/12 02:07:44;;;;;;;13.70;2.65;;;;;;;;;;4992819;28;20140;-75
2021/03/12 02:10:11;;;;;;;25.65;3.08;;;;;;;;;;4985445;28;20470;-75
2021/03/12 02:12:46;;;;;;;12.35;2.22;;;;;;;;;;4982523;28;20047;-75
2021/03/12 02:15:16;;;;;;;16.30;3.80;;;;;;;;;;4984895;28;20038;-75
2021/03/12 02:17:54;;;;;;;17.13;3.20;;;;;;;;;;4986743;28;20406;-75
2021/03/12 02:20:39;;;;;;;16.88;2.45;;;;;;;;;;4989088;28;20100;-75
2021/03/12 02:23:11;;;;;;;12.63;2.63;;;;;;;;;;4980457;28;20490;-75
2021/03/12 02:25:39;;;;;;;15.88;3.00;;;;;;;;;;4989128;28;20122;-75
2021/03/12 02:28:06;;;;;;;13.82;2.47;;;;;;;;;;4979321;28;20042;-75
2021/03/12 02:30:33;;;;;;;13.48;2.72;;;;;;;;;;4987848;28;20046;-74
2021/03/12 02:32:59;;;;;;;14.90;2.72;;;;;;;;;;4975187;28;20446;-75
2021/03/12 02:35:26;;;;;;;17.58;2.70;;;;;;;;;;4985579;28;20067;-75
2021/03/12 02:37:53;;;;;;;16.88;3.53;;;;;;;;;;4962227;28;20424;-75
2021/03/12 02:40:20;;;;;;;15.43;2.55;;;;;;;;;;4986159;28;20038;-75
2021/03/12 02:42:46;;;;;;;14.98;4.10;;;;;;;;;;4992970;28;20096;-75
2021/03/12 02:45:13;;;;;;;17.08;2.72;;;;;;;;;;4987126;28;20454;-75
2021/03/12 02:47:40;;;;;;;14.23;2.97;;;;;;;;;;4984697;28;20475;-75
2021/03/12 02:50:07;;;;;;;22.67;2.90;;;;;;;;;;4988339;28;20121;-75
2021/03/12 02:52:34;;;;;;;19.92;3.03;;;;;;;;;;4997399;28;20057;-75
2021/03/12 02:55:00;;;;;;;20.10;3.10;;;;;;;;;;4988658;28;20070;-75
2021/03/12 02:57:26;;;;;;;16.50;2.78;;;;;;;;;;4990150;28;20442;-75
2021/03/12 02:59:54;;;;;;;20.67;2.90;;;;;;;;;;4980676;28;20046;-75
2021/03/12 03:02:24;;;;;;;18.95;3.38;;;;;;;;;;4990567;28;20061;-75
2021/03/12 03:04:51;;;;;;;13.95;2.50;;;;;;;;;;4983699;28;20425;-75
2021/03/12 03:07:19;;;;;;;18.00;2.95;;;;;;;;;;4989750;28;20496;-75
2021/03/12 03:09:45;;;;;;;15.38;2.72;;;;;;;;;;4988200;28;20050;-75
2021/03/12 03:12:14;;;;;;;18.38;3.60;;;;;;;;;;4987155;28;20081;-75
2021/03/12 03:14:40;;;;;;;16.05;2.70;;;;;;;;;;4983550;28;20046;-75
2021/03/12 03:17:08;;;;;;;18.42;3.40;;;;;;;;;;4981211;28;20116;-76
2021/03/12 03:19:37;;;;;;;19.52;3.05;;;;;;;;;;4985974;28;20046;-75
2021/03/12 03:22:03;;;;;;;21.50;4.10;;;;;;;;;;4991182;28;20745;-76
2021/03/12 03:24:30;;;;;;;15.73;2.70;;;;;;;;;;4990801;28;20125;-75
2021/03/12 03:26:57;;;;;;;21.80;2.92;;;;;;;;;;4974019;28;20456;-75
2021/03/12 03:29:23;;;;;;;15.40;2.58;;;;;;;;;;4983866;28;20057;-75
2021/03/12 03:31:50;;;;;;;18.50;2.97;;;;;;;;;;4980899;28;20038;-74
2021/03/12 03:34:16;;;;;;;19.50;2.88;;;;;;;;;;5004563;28;20113;-75
2021/03/12 03:36:44;;;;;;;13.63;2.10;;;;;;;;;;4988891;28;20405;-75
2021/03/12 03:39:11;;;;;;;11.60;2.25;;;;;;;;;;4988293;28;20046;-76
2021/03/12 03:41:45;;;;;;;14.93;3.30;;;;;;;;;;4985757;28;20117;-75
2021/03/12 03:44:11;;;;;;;;;;;;;;;;;;4987941;28;20101;-76
2021/03/12 03:46:39;;;;;;;24.17;3.17;;;;;;;;;;4984922;28;19933;-75
2021/03/12 03:49:07;;;;;;;13.93;2.47;;;;;;;;;;4984315;28;20034;-76
2021/03/12 03:51:33;;;;;;;16.42;2.65;;;;;;;;;;4987173;28;20041;-75
2021/03/12 03:54:00;;;;;;;24.02;3.78;;;;;;;;;;4986540;28;20035;-75
2021/03/12 03:56:26;;;;;;;31.90;3.63;;;;;;;;;;4983893;28;20042;-75
2021/03/12 03:58:52;;;;;;;22.52;3.53;;;;;;;;;;4987583;28;20065;-75
2021/03/12 04:01:28;;;;;;;20.70;2.50;;;;;;;;;;4979235;28;20092;-75
2021/03/12 04:03:55;;;;;;;13.07;2.33;;;;;;;;;;4979635;28;20402;-75
2021/03/12 04:06:22;;;;;;;18.45;2.38;;;;;;;;;;4982537;28;20107;-75
2021/03/12 04:08:49;;;;;;;18.02;3.70;;;;;;;;;;4990239;28;20050;-75
2021/03/12 04:11:15;;;;;;;18.88;3.65;;;;;;;;;;4981058;28;20042;-75
2021/03/12 04:13:42;;;;;;;13.65;2.80;;;;;;;;;;5001859;28;20050;-75
2021/03/12 04:16:08;;;;;;;11.77;2.15;;;;;;;;;;4986253;28;20133;-76
2021/03/12 04:18:35;;;;;;;19.17;2.45;;;;;;;;;;4969788;28;20046;-74
2021/03/12 04:21:02;;;;;;;10.10;2.63;;;;;;;;;;4988423;28;20038;-75
2021/03/12 04:23:28;;;;;;;15.98;2.58;;;;;;;;;;4954925;28;20062;-74
2021/03/12 04:25:55;;;;;;;16.05;3.00;;;;;;;;;;4976626;28;20038;-75
2021/03/12 04:28:22;;;;;;;17.83;2.30;;;;;;;;;;4983634;28;20050;-75
2021/03/12 04:30:48;;;;;;;18.73;2.95;;;;;;;;;;4985930;28;20435;-75
2021/03/12 04:33:16;;;;;;;16.65;2.13;;;;;;;;;;4991058;28;20030;-75
2021/03/12 04:35:43;;;;;;;21.27;3.80;;;;;;;;;;4983713;28;20038;-75
2021/03/12 04:38:09;;;;;;;22.30;2.70;;;;;;;;;;4991142;28;20044;-75
2021/03/12 04:40:36;;;;;;;14.73;2.33;;;;;;;;;;4967932;28;20035;-76
2021/03/12 04:43:03;;;;;;;13.90;2.65;;;;;;;;;;4983843;28;20050;-74
2021/03/12 04:45:29;;;;;;;18.33;2.63;;;;;;;;;;4991183;28;20367;-75
2021/03/12 04:47:58;;;;;;;21.48;2.80;;;;;;;;;;4993259;28;20066;-75
2021/03/12 04:50:25;;;;;;;17.10;2.70;;;;;;;;;;4973986;28;20125;-75
2021/03/12 04:52:55;;;;;;;16.42;3.80;;;;;;;;;;4985781;28;20104;-75
2021/03/12 04:55:21;;;;;;;19.48;2.88;;;;;;;;;;5007250;28;20700;-75
2021/03/12 04:57:47;;;;;;;21.98;4.15;;;;;;;;;;5001512;28;20042;-75
2021/03/12 05:00:14;;;;;;;18.48;2.95;;;;;;;;;;5003495;28;20034;-75
2021/03/12 05:02:40;;;;;;;16.02;2.03;;;;;;;;;;5001593;28;20042;-75
2021/03/12 05:05:10;;;;;;;15.00;2.20;;;;;;;;;;4995014;28;20508;-75
2021/03/12 05:07:37;;;;;;;17.55;3.08;;;;;;;;;;4994629;28;20042;-75
2021/03/12 05:10:04;;;;;;;18.63;2.83;;;;;;;;;;5014162;28;20125;-75
2021/03/12 05:12:31;;;;;;;23.77;3.08;;;;;;;;;;5000359;28;20041;-75
2021/03/12 05:14:57;;;;;;;16.17;2.45;;;;;;;;;;4994320;28;20137;-73
2021/03/12 05:17:23;;;;;;;24.73;2.42;;;;;;;;;;5007524;28;20157;-73
2021/03/12 05:19:50;;;;;;;17.73;2.80;;;;;;;;;;5005991;28;20043;-74
2021/03/12 05:22:16;;;;;;;15.85;2.53;;;;;;;;;;5007904;28;20042;-76
2021/03/12 05:24:42;;;;;;;18.95;2.83;;;;;;;;;;4982490;28;20057;-75
2021/03/12 05:27:09;;;;;;;26.10;4.53;;;;;;;;;;4984829;28;20057;-75
2021/03/12 05:29:35;;;;;;;16.42;2.55;;;;;;;;;;4987309;28;20117;-75
2021/03/12 05:32:01;;;;;;;17.30;3.30;;;;;;;;;;4999868;28;20076;-75
2021/03/12 05:34:29;;;;;;;16.65;3.10;;;;;;;;;;4976795;28;20044;-73
2021/03/12 05:36:55;;;;;;;19.30;2.20;;;;;;;;;;4983564;28;20038;-75
2021/03/12 05:39:22;;;;;;;19.13;3.63;;;;;;;;;;4990874;28;20081;-75
2021/03/12 05:41:49;;;;;;;18.23;2.67;;;;;;;;;;4993223;28;20052;-75
2021/03/12 05:44:16;;;;;;;17.67;2.35;;;;;;;;;;4995989;28;20047;-76
2021/03/12 05:46:43;;;;;;;24.73;4.00;;;;;;;;;;5009372;28;20053;-75
2021/03/12 05:49:10;;;;;;;18.58;2.28;;;;;;;;;;4997659;28;20164;-75
2021/03/12 05:51:37;;;;;;;16.00;2.63;;;;;;;;;;4996898;28;20042;-75
2021/03/12 05:54:03;;;;;;;17.80;2.22;;;;;;;;;;5013021;28;20460;-75
2021/03/12 05:56:30;;;;;;;11.77;2.50;;;;;;;;;;4982060;28;20485;-76
2021/03/12 05:58:58;;;;;;;15.50;2.20;;;;;;;;;;4989913;28;20086;-75
2021/03/12 06:01:24;;;;;;;21.30;3.05;;;;;;;;;;4983283;28;20042;-76
2021/03/12 06:03:51;;;;;;;22.17;2.65;;;;;;;;;;4997813;28;20049;-75
2021/03/12 06:06:17;;;;;;;17.48;2.70;;;;;;;;;;4997475;28;20068;-75
2021/03/12 06:08:44;;;;;;;17.00;2.45;;;;;;;;;;5012954;28;20053;-75
2021/03/12 06:11:10;;;;;;;18.05;3.10;;;;;;;;;;5010591;28;20474;-76
2021/03/12 06:13:52;;;;;;;18.25;2.88;;;;;;;;;;5008999;28;20093;-75
2021/03/12 06:16:23;;;;;;;20.27;3.63;;;;;;;;;;5007513;28;20070;-75
2021/03/12 06:19:08;;;;;;;19.35;2.72;;;;;;;;;;4988259;28;20096;-75
2021/03/12 06:21:34;;;;;;;16.02;2.72;;;;;;;;;;5011580;28;20428;-76
2021/03/12 06:24:00;;;;;;;21.92;3.28;;;;;;;;;;5006444;28;20069;-75
2021/03/12 06:26:43;;;;;;;16.25;3.10;;;;;;;;;;5004885;28;20046;-75
2021/03/12 06:29:10;;;;;;;13.75;2.35;;;;;;;;;;5013939;28;20428;-75
2021/03/12 06:31:37;;;;;;;21.13;3.42;;;;;;;;;;5001982;28;20038;-75
2021/03/12 06:34:10;;;;;;;16.17;2.55;;;;;;;;;;4985395;28;20042;-75
2021/03/12 06:36:37;;;;;;;16.83;2.70;;;;;;;;;;4984788;28;20428;-75
2021/03/12 06:39:03;;;;;;;19.65;3.13;;;;;;;;;;4979041;28;20042;-75
2021/03/12 06:41:42;;;;;;;17.27;2.50;;;;;;;;;;5006209;28;20038;-76
2021/03/12 06:44:27;;;;;;;22.35;3.08;;;;;;;;;;4990746;28;20144;-75
2021/03/12 06:46:54;;;;;;;20.10;3.45;;;;;;;;;;4995503;28;20529;-76
2021/03/12 06:49:20;;;;;;;25.15;4.10;;;;;;;;;;4997763;28;20077;-76
2021/03/12 06:51:58;;;;;;;21.77;3.35;;;;;;;;;;5003112;28;20046;-76
2021/03/12 06:54:26;;;;;;;24.00;3.92;;;;;;;;;;4995706;28;20129;-76
2021/03/12 06:56:52;;;;;;;21.65;4.32;;;;;;;;;;4994507;28;20401;-75
2021/03/12 06:59:27;;;;;;;19.27;2.78;;;;;;;;;;5012776;28;20045;-75
2021/03/12 07:01:59;;;;;;;14.95;3.15;;;;;;;;;;4997234;28;20157;-76
2021/03/12 07:04:26;;;;;;;20.58;3.63;;;;;;;;;;4996497;28;20104;-75
2021/03/12 07:06:53;;;;;;;19.52;3.35;;;;;;;;;;4992759;28;20046;-75
2021/03/12 07:09:19;;;;;;;21.02;3.38;;;;;;;;;;4983402;28;20038;-78
2021/03/12 07:11:52;;;;;;;24.23;3.50;;;;;;;;;;4975229;28;20477;-76
2021/03/12 07:14:19;;;;;;;13.80;3.33;;;;;;;;;;4991058;28;20062;-76
2021/03/12 07:16:46;;;;;;;20.48;3.20;;;;;;;;;;4991625;28;20050;-75
2021/03/12 07:19:15;;;;;;;21.20;3.83;;;;;;;;;;5005437;28;20101;-75
2021/03/12 07:21:42;;;;;;;23.20;4.20;;;;;;;;;;4989410;28;20069;-75
2021/03/12 07:24:10;;;;;;;19.83;3.85;;;;;;;;;;4984406;28;20056;-75
2021/03/12 07:26:42;;;;;;;20.95;3.47;;;;;;;;;;4977346;28;20065;-75
2021/03/12 07:29:10;;;;;;;20.48;3.40;;;;;;;;;;5010983;28;20121;-75
2021/03/12 07:31:38;;;;;;;24.02;3.92;;;;;;;;;;4966950;28;20058;-75
2021/03/12 07:34:24;;;;;;;22.23;3.63;;;;;;;;;;4993473;28;20038;-74
2021/03/12 07:36:54;;;;;;;23.83;4.18;;;;;;;;;;4966456;28;20557;-75
2021/03/12 07:39:24;;;;;;;23.42;3.47;;;;;;;;;;5005143;28;20088;-73
2021/03/12 07:41:51;;;;;;;22.77;3.72;;;;;;;;;;4983703;28;20042;-75
2021/03/12 07:44:18;;;;;;;17.63;3.88;;;;;;;;;;4987812;28;20433;-75
2021/03/12 07:46:51;;;;;;;18.27;3.50;;;;;;;;;;4985032;28;20511;-70
2021/03/12 07:49:30;;;;;;;27.15;5.53;;;;;;;;;;5003803;28;20532;-78
2021/03/12 07:51:57;;;;;;;25.48;3.72;;;;;;;;;;5005858;28;20536;-75
2021/03/12 07:54:50;;;;;;;27.08;4.57;;;;;;;;;;4983206;28;20038;-75
2021/03/12 07:57:36;;;;;;;23.42;3.95;;;;;;;;;;4987218;28;20421;-75
2021/03/12 08:00:04;;;;;;;28.38;4.32;;;;;;;;;;5005502;28;20050;-75
2021/03/12 08:02:49;;;;;;;23.58;3.83;;;;;;;;;;4994909;28;20444;-73
2021/03/12 08:05:35;;;;;;;20.67;3.80;;;;;;;;;;4994813;28;20401;-73
2021/03/12 08:08:04;;;;;;;29.50;5.70;;;;;;;;;;4971037;28;20104;-75
2021/03/12 08:10:30;;;;;;;22.77;4.18;;;;;;;;;;4998982;28;20058;-74
2021/03/12 08:12:57;;;;;;;20.33;4.05;;;;;;;;;;5011457;28;20061;-74
2021/03/12 08:15:31;;;;;;;17.98;3.63;;;;;;;;;;5012094;28;20038;-74
2021/03/12 08:17:57;;;;;;;19.70;3.50;;;;;;;;;;5011778;28;20045;-74
2021/03/12 08:20:24;;;;;;;19.98;3.88;;;;;;;;;;5008679;28;20790;-74
2021/03/12 08:22:50;;;;;;;24.52;4.25;;;;;;;;;;4994042;28;20045;-74
2021/03/12 08:25:32;;;;;;;19.27;3.28;;;;;;;;;;4994141;28;20374;-74
2021/03/12 08:28:18;;;;;;;21.58;3.83;;;;;;;;;;5011726;28;20045;-74
2021/03/12 08:30:45;;;;;;;21.30;2.78;;;;;;;;;;4998198;28;20053;-75
2021/03/12 08:33:21;;;;;;;19.70;3.60;;;;;;;;;;5010314;28;20677;-76
2021/03/12 08:35:48;;;;;;;21.10;3.40;;;;;;;;;;4993865;28;20038;-77
2021/03/12 08:38:24;;;;;;;18.42;3.45;;;;;;;;;;4991010;28;20400;-77
2021/03/12 08:41:12;;;;;;;19.85;3.05;;;;;;;;;;5011447;28;20052;-76
2021/03/12 08:43:43;;;;;;;29.83;3.67;;;;;;;;;;5011212;28;20088;-77
2021/03/12 08:46:15;;;;;;;19.00;3.22;;;;;;;;;;4994108;28;20069;-76
2021/03/12 08:48:42;;;;;;;14.65;3.63;;;;;;;;;;4975199;28;20054;-75
2021/03/12 08:51:09;;;;;;;17.65;3.58;;;;;;;;;;4994326;28;20069;-74
2021/03/12 08:53:37;;;;;;;14.80;3.10;;;;;;;;;;5011562;28;20034;-74
2021/03/12 08:56:04;;;;;;;21.40;3.92;;;;;;;;;;5010773;28;20041;-75
2021/03/12 08:58:30;;;;;;;17.17;4.70;;;;;;;;;;5011177;28;20041;-73
2021/03/12 09:01:12;;;;;;;20.38;3.33;;;;;;;;;;5011004;28;20034;-77
2021/03/12 09:03:59;;;;;;;21.70;3.55;;;;;;;;;;4963648;28;20049;-75
2021/03/12 09:06:45;;;;;;;21.95;4.15;;;;;;;;;;4969268;28;20085;-74
2021/03/12 09:09:31;;;;;;;16.80;3.65;;;;;;;;;;4966103;28;20050;-73
2021/03/12 09:12:17;;;;;;;17.85;4.00;;;;;;;;;;4994925;28;20065;-74
2021/03/12 09:14:44;;;;;;;24.70;3.80;;;;;;;;;;4994770;28;20038;-75
2021/03/12 09:17:10;;;;;;;19.83;3.97;;;;;;;;;;5001677;28;20054;-72
2021/03/12 09:19:36;;;;;;;22.75;3.67;;;;;;;;;;4982500;28;20043;-73
2021/03/12 09:22:03;;;;;;;20.75;4.55;;;;;;;;;;5003869;28;20038;-71
2021/03/12 09:24:30;;;;;;;24.35;3.85;;;;;;;;;;4988636;28;20046;-72
2021/03/12 09:26:57;;;;;;;20.02;3.88;;;;;;;;;;4989816;28;20075;-71
2021/03/12 09:29:23;;;;;;;16.23;3.00;;;;;;;;;;4989884;28;20049;-74
2021/03/12 09:31:50;;;;;;;24.10;3.45;;;;;;;;;;5012401;28;20037;-73
2021/03/12 09:34:18;;;;;;;21.38;3.53;;;;;;;;;;5007730;28;20117;-73
2021/03/12 09:36:46;;;;;;;26.20;3.83;;;;;;;;;;4996498;28;20121;-75
2021/03/12 09:39:20;;;;;;;16.38;3.20;;;;;;;;;;5013949;28;20056;-73
2021/03/12 09:41:52;;;;;;;18.55;3.25;;;;;;;;;;5011753;28;20046;-73
2021/03/12 09:44:18;;;;;;;19.20;3.78;;;;;;;;;;5013936;28;20367;-74
2021/03/12 09:46:50;;;;;;;18.70;3.78;;;;;;;;;;4980323;28;20100;-74
2021/03/12 09:49:26;;;;;;;18.88;3.80;;;;;;;;;;4997280;28;20096;-78
2021/03/12 09:51:53;;;;;;;24.30;3.95;;;;;;;;;;4997055;28;20046;-76
2021/03/12 09:54:19;;;;;;;23.65;4.00;;;;;;;;;;4994311;28;20046;-78
2021/03/12 09:56:50;;;;;;;21.50;3.88;;;;;;;;;;4994825;28;20547;-79
2021/03/12 09:59:27;;;;;;;23.05;4.00;;;;;;;;;;4997481;28;20129;-78
2021/03/12 10:01:54;;;;;;;26.40;3.55;;;;;;;;;;4996503;28;20485;-78
2021/03/12 10:04:32;;;;;;;18.52;3.85;;;;;;;;;;5014352;28;20194;-79
2021/03/12 10:07:17;;;;;;;21.77;3.88;;;;;;;;;;5005173;28;20099;-77
2021/03/12 10:09:47;;;;;;;21.65;3.38;;;;;;;;;;5003236;28;20502;-73
2021/03/12 10:12:18;;;;;;;19.98;3.92;;;;;;;;;;4982736;28;20042;-73
2021/03/12 10:14:51;;;;;;;20.13;3.88;;;;;;;;;;5013521;28;20061;-73
2021/03/12 10:17:17;;;;;;;21.70;3.78;;;;;;;;;;4996132;28;20050;-72
2021/03/12 10:19:46;;;;;;;21.95;4.10;;;;;;;;;;5012309;28;20473;-74
2021/03/12 10:22:14;;;;;;;24.02;4.38;;;;;;;;;;4995070;28;20077;-72
2021/03/12 10:24:40;;;;;;;28.10;4.78;;;;;;;;;;5013855;28;20116;-72
2021/03/12 10:27:06;;;;;;;25.52;4.95;;;;;;;;;;4990970;28;20069;-75
2021/03/12 10:29:37;;;;;;;26.42;4.55;;;;;;;;;;5011537;28;20072;-79
2021/03/12 10:32:10;;;;;;;22.88;4.78;;;;;;;;;;5011930;28;20118;-74
2021/03/12 10:34:53;;;;;;;29.60;5.75;;;;;;;;;;5004887;28;20388;-80
2021/03/12 10:37:31;;;;;;;22.73;4.85;;;;;;;;;;5011403;28;20029;-76
2021/03/12 10:39:58;;;;;;;27.90;4.72;;;;;;;;;;4979965;28;20034;-75
2021/03/12 10:42:28;;;;;;;26.50;4.90;;;;;;;;;;4983679;28;20049;-74
2021/03/12 10:44:55;;;;;;;26.63;5.53;;;;;;;;;;5023508;28;20096;-76
2021/03/12 10:47:22;;;;;;;25.10;5.05;;;;;;;;;;5013681;28;20137;-75
2021/03/12 10:49:48;;;;;;;31.10;6.20;;;;;;;;;;5003034;28;20103;-76
2021/03/12 10:52:28;;;;;;;30.17;5.25;;;;;;;;;;5008281;28;20046;-76
2021/03/12 10:54:55;;;;;;;28.30;5.28;;;;;;;;;;5009616;28;20046;-75
2021/03/12 10:57:50;;;;;;;30.17;6.13;;;;;;;;;;4979888;28;20046;-76
2021/03/12 11:00:18;;;;;;;32.50;5.90;;;;;;;;;;4963275;28;20046;-76
2021/03/12 11:02:45;;;;;;;31.95;6.90;;;;;;;;;;4993369;28;20045;-76
2021/03/12 11:05:13;;;;;;;34.08;5.82;;;;;;;;;;4968357;28;20452;-74
2021/03/12 11:07:40;;;;;;;32.22;6.88;;;;;;;;;;4990857;28;20049;-72
2021/03/12 11:10:06;;;;;;;27.83;6.40;;;;;;;;;;5012365;28;20061;-72
2021/03/12 11:12:48;;;;;;;27.23;6.45;;;;;;;;;;4996065;28;20138;-71
2021/03/12 11:15:17;;;;;;;26.45;5.82;;;;;;;;;;4994979;28;20126;-74
2021/03/12 11:17:47;;;;;;;36.80;7.35;;;;;;;;;;4995500;28;20069;-76
2021/03/12 11:20:14;;;;;;;34.92;7.28;;;;;;;;;;4978351;28;20103;-73
2021/03/12 11:22:40;;;;;;;24.23;5.35;;;;;;;;;;5011907;28;20037;-74
2021/03/12 11:25:07;;;;;;;28.45;6.53;;;;;;;;;;5002862;28;20125;-75
2021/03/12 11:27:33;;;;;;;21.73;4.43;;;;;;;;;;5013481;28;20404;-74
2021/03/12 11:30:00;;;;;;;18.50;3.00;;;;;;;;;;5010859;28;20493;-76
2021/03/12 11:32:27;;;;;;;15.32;3.78;;;;;;;;;;4995693;28;20042;-74
2021/03/12 11:34:54;;;;;;;10.63;3.15;;;;;;;;;;4987911;28;20042;-74
2021/03/12 11:37:21;;;;;;;14.05;4.28;;;;;;;;;;4981046;28;20042;-74
2021/03/12 11:39:47;;;;;;;13.27;4.40;;;;;;;;;;5003893;28;20034;-73
2021/03/12 11:42:13;;;;;;;15.73;4.93;;;;;;;;;;4994650;28;20504;-73
2021/03/12 11:44:40;;;;;;;16.88;5.25;;;;;;;;;;4995690;28;20053;-73
2021/03/12 11:47:06;;;;;;;18.25;6.05;;;;;;;;;;5001307;28;20061;-73
2021/03/12 11:49:32;;;;;;;17.80;6.70;;;;;;;;;;5008609;28;20042;-72
2021/03/12 11:51:58;;;;;;;17.52;6.55;;;;;;;;;;4990453;28;20038;-72
2021/03/12 11:54:25;;;;;;;19.58;7.28;;;;;;;;;;5008071;28;20584;-72
2021/03/12 11:56:52;;;;;;;24.80;7.28;;;;;;;;;;4996820;28;20469;-73
2021/03/12 11:59:18;;;;;;;15.55;6.60;;;;;;;;;;4989532;28;20046;-77
2021/03/12 12:01:46;;;;;;;17.13;6.28;;;;;;;;;;4993994;28;20042;-74
2021/03/12 12:04:12;;;;;;;15.25;5.05;;;;;;;;;;4962759;28;20123;-74
2021/03/12 12:06:38;;;;;;;14.55;4.93;;;;;;;;;;5012836;28;20065;-73
2021/03/12 12:09:05;;;;;;;15.23;5.20;;;;;;;;;;5010043;28;20513;-74
2021/03/12 12:11:31;;;;;;;11.02;4.32;;;;;;;;;;4996230;28;20038;-73
2021/03/12 12:13:58;;;;;;;13.80;4.10;;;;;;;;;;4983729;28;20400;-74
2021/03/12 12:16:27;;;;;;;18.48;4.13;;;;;;;;;;5011038;28;20045;-74
2021/03/12 12:18:53;;;;;;;11.80;4.03;;;;;;;;;;5011979;28;20046;-71
2021/03/12 12:21:19;;;;;;;17.25;4.18;;;;;;;;;;5010789;28;20045;-73
2021/03/12 12:23:45;;;;;;;14.90;4.07;;;;;;;;;;5012079;28;20511;-71
2021/03/12 12:26:12;;;;;;;15.43;3.78;;;;;;;;;;5010384;28;20428;-71
2021/03/12 12:28:38;;;;;;;13.75;3.53;;;;;;;;;;5005866;28;20095;-72
2021/03/12 12:31:04;;;;;;;16.05;3.85;;;;;;;;;;5020629;28;20037;-72
2021/03/12 12:33:31;;;;;;;20.67;4.07;;;;;;;;;;5012188;28;20046;-71
2021/03/12 12:35:57;;;;;;;25.08;4.03;;;;;;;;;;5011333;28;20068;-71
2021/03/12 12:38:24;;;;;;;16.92;3.63;;;;;;;;;;4990827;28;20046;-74
2021/03/12 12:40:50;;;;;;;19.38;3.70;;;;;;;;;;5011994;28;20037;-73
2021/03/12 12:43:16;;;;;;;19.90;3.72;;;;;;;;;;4999985;28;20564;-74
2021/03/12 12:45:42;;;;;;;17.98;4.30;;;;;;;;;;4991150;28;20048;-72
2021/03/12 12:48:08;;;;;;;18.33;3.75;;;;;;;;;;4990307;28;20498;-73
2021/03/12 12:50:35;;;;;;;20.38;4.57;;;;;;;;;;4988029;28;20050;-73
2021/03/12 12:53:01;;;;;;;14.25;3.50;;;;;;;;;;4986910;28;20105;-73
2021/03/12 12:55:27;;;;;;;26.77;5.25;;;;;;;;;;4987000;28;20334;-73
2021/03/12 12:57:53;;;;;;;20.08;4.10;;;;;;;;;;4990823;28;20034;-73
2021/03/12 13:00:19;;;;;;;23.75;4.70;;;;;;;;;;4988639;28;20058;-73
2021/03/12 13:02:45;;;;;;;14.77;4.28;;;;;;;;;;4989364;28;20406;-72
2021/03/12 13:05:12;;;;;;;21.33;5.05;;;;;;;;;;4988811;28;20536;-72
2021/03/12 13:07:38;;;;;;;16.67;3.45;;;;;;;;;;4990350;28;20038;-72
2021/03/12 13:10:05;;;;;;;16.80;3.67;;;;;;;;;;4991162;28;20054;-72
2021/03/12 13:12:31;;;;;;;17.05;3.90;;;;;;;;;;4991115;28;20051;-71
2021/03/12 13:14:57;;;;;;;17.05;4.88;;;;;;;;;;4991529;28;20049;-71
2021/03/12 13:17:24;;;;;;;15.45;4.75;;;;;;;;;;4990246;28;20379;-72
2021/03/12 13:19:51;;;;;;;24.48;6.78;;;;;;;;;;4990109;28;20046;-72
2021/03/12 13:22:17;;;;;;;16.75;5.63;;;;;;;;;;4989031;28;20096;-74
2021/03/12 13:24:44;;;;;;;18.45;5.47;;;;;;;;;;4990155;28;20046;-73
2021/03/12 13:27:10;;;;;;;19.45;5.50;;;;;;;;;;4989714;28;20046;-73
2021/03/12 13:29:36;;;;;;;15.57;3.60;;;;;;;;;;4987504;28;20133;-73
2021/03/12 13:32:03;;;;;;;14.05;3.15;;;;;;;;;;4982730;28;20105;-73
2021/03/12 13:34:29;;;;;;;14.00;3.83;;;;;;;;;;5005834;28;20062;-73
2021/03/12 13:36:55;;;;;;;19.90;4.55;;;;;;;;;;4990482;28;20470;-73
2021/03/12 13:39:22;;;;;;;16.15;5.15;;;;;;;;;;4970559;28;20511;-73
2021/03/12 13:41:48;;;;;;;21.08;7.05;;;;;;;;;;4990912;28;20034;-73
2021/03/12 13:44:15;;;;;;;20.48;6.93;;;;;;;;;;5004476;28;20053;-74
2021/03/12 13:46:43;;;;;;;18.88;6.68;;;;;;;;;;4992611;28;20038;-73
2021/03/12 13:49:09;;;;;;;21.40;6.20;;;;;;;;;;4995304;28;20485;-73
2021/03/12 13:51:36;;;;;;;19.63;5.90;;;;;;;;;;5010646;28;20107;-73
2021/03/12 13:54:02;;;;;;;14.88;4.55;;;;;;;;;;5011338;28;20042;-73
2021/03/12 13:56:28;;;;;;;15.27;5.78;;;;;;;;;;5008748;28;20092;-73
2021/03/12 13:58:54;;;;;;;13.02;5.45;;;;;;;;;;4993760;28;20048;-73
2021/03/12 14:01:20;;;;;;;17.42;5.28;;;;;;;;;;4992809;28;20034;-73
2021/03/12 14:03:46;;;;;;;18.52;7.05;;;;;;;;;;5010333;28;20467;-73
2021/03/12 14:06:13;;;;;;;14.93;6.70;;;;;;;;;;5011556;28;20069;-73
2021/03/12 14:08:39;;;;;;;13.68;6.00;;;;;;;;;;5012882;28;20050;-73
2021/03/12 14:11:05;;;;;;;14.90;5.97;;;;;;;;;;4996917;28;20053;-73
2021/03/12 14:13:31;;;;;;;12.93;5.22;;;;;;;;;;4996357;28;20053;-73
2021/03/12 14:15:58;;;;;;;17.80;6.25;;;;;;;;;;4996860;28;20437;-72
2021/03/12 14:18:24;;;;;;;19.83;6.47;;;;;;;;;;4996162;28;20042;-72
2021/03/12 14:20:50;;;;;;;18.60;7.25;;;;;;;;;;5013198;28;20069;-73
2021/03/12 14:23:16;;;;;;;20.88;7.50;;;;;;;;;;5012002;28;20072;-74
2021/03/12 14:25:43;;;;;;;24.35;8.23;;;;;;;;;;4994685;28;20046;-74
2021/03/12 14:28:09;;;;;;;24.60;9.02;;;;;;;;;;5000536;28;20049;-73
2021/03/12 14:30:35;;;;;;;19.23;7.57;;;;;;;;;;4987938;28;20072;-74
2021/03/12 14:33:02;;;;;;;19.10;6.65;;;;;;;;;;4993360;28;20127;-74
2021/03/12 14:35:28;;;;;;;14.35;6.88;;;;;;;;;;5011072;28;20046;-75
2021/03/12 14:37:55;;;;;;;15.55;6.18;;;;;;;;;;4994639;28;20061;-76